Дата Пункты Температура Давл., мм. Влажн., % Ветер Погодные явления
Воздуха Воды Направл. Скорость
04.05.19 06:00 Одесса 14.0 10.0 754 88 Пд 3 18 ГОДИН
04.05.19 03:00 Одесса 16.0 0.0 754 79 Пд 3 15 ГОДИН
04.05.19 12:00 Одесса 15.0 11.0 755 82 Пд 4 12 ГОДИН
04.05.19 09:00 Одесса 15.0 11.0 754 85 Пд-З 2 09 ГОДИН
04.05.19 06:00 Одесса 13.0 12.0 753 91 Пд-З 2 06 ГОДИН
04.05.19 03:00 Одесса 13.0 12.0 753 90 Пд-З 2 03 ГОДИНИ
03.05.19 09:00 Одесса 14.0 12.0 754 78 Пд-З 3 21 ГОДИНУ
03.05.19 06:00 Одесса 17.0 12.0 753 56 Пд-З 3 18 ГОДИН
03.05.19 03:00 Одесса 17.0 12.0 753 61 Пд 4 15 ГОДИН
03.05.19 12:00 Одесса 19.0 12.0 754 54 Пд 3 12 ГОДИН
03.05.19 09:00 Одесса 19.0 12.0 753 53 Пн-С 1 09 ГОДИН
03.05.19 06:00 Одесса 11.0 12.0 752 83 З 2 06 ГОДИН
03.05.19 03:00 Одесса 12.0 12.0 752 85 З 2 03 ГОДИНИ
02.05.19 09:00 Одесса 13.0 12.0 752 75 З 4 21 ГОДИНУ
02.05.19 06:00 Одесса 16.0 12.0 751 65 Пд 2 18 ГОДИН
02.05.19 03:00 Одесса 15.0 12.0 751 72 Пд 3 15 ГОДИН
02.05.19 12:00 Одесса 18.0 12.0 751 50 З 2 12 ГОДИН
02.05.19 09:00 Одесса 13.0 12.0 751 73 Пн-З 1 09 ГОДИН
02.05.19 06:00 Одесса 9.0 12.0 749 87 З 2 06 ГОДИН
02.05.19 03:00 Одесса 10.0 12.0 749 90 З 2 03 ГОДИНИ
Количество строк
1 2 3 4 5 6 7 8 9 10
Page 7 of 491